Time;durP1;ratioP1;P1;durP2;ratioP2;P2;SDS_P1;SDS_P2;PMS_P1;PMS_P2;Temp;Humidity;BMP_temperature;BMP_pressure;BME280_temperature;BME280_humidity;BME280_pressure;Samples;Min_cycle;Max_cycle;Signal;HPM_P1;HPM_P2
2020/12/04 00:02:24;;;;;;;6.38;2.88;;;;;;;;;;5093972;28;20024;-67
2020/12/04 00:04:50;;;;;;;5.28;1.80;;;;;;;;;;5094158;28;20024;-69
2020/12/04 00:07:16;;;;;;;3.40;1.83;;;;;;;;;;5093979;28;20016;-69
2020/12/04 00:09:42;;;;;;;6.40;1.95;;;;;;;;;;5094028;28;20031;-68
2020/12/04 00:12:09;;;;;;;4.68;1.90;;;;;;;;;;5093957;28;20029;-68
2020/12/04 00:14:35;;;;;;;6.88;2.20;;;;;;;;;;5093829;28;20032;-69
2020/12/04 00:17:01;;;;;;;5.32;1.73;;;;;;;;;;5093722;28;20023;-69
2020/12/04 00:19:27;;;;;;;4.63;1.83;;;;;;;;;;5093646;28;20468;-68
2020/12/04 00:21:54;;;;;;;5.25;2.30;;;;;;;;;;5092326;28;20468;-68
2020/12/04 00:24:20;;;;;;;6.50;2.97;;;;;;;;;;5093759;28;20039;-67
2020/12/04 00:26:46;;;;;;;4.90;2.03;;;;;;;;;;5093551;28;20460;-68
2020/12/04 00:29:12;;;;;;;4.72;2.17;;;;;;;;;;5093737;28;20016;-68
2020/12/04 00:31:38;;;;;;;4.00;1.73;;;;;;;;;;5093452;28;20054;-68
2020/12/04 00:34:04;;;;;;;4.40;2.10;;;;;;;;;;5093226;28;20103;-68
2020/12/04 00:36:30;;;;;;;4.80;1.75;;;;;;;;;;5093287;28;20115;-69
2020/12/04 00:38:57;;;;;;;3.88;2.00;;;;;;;;;;5093191;28;20016;-68
2020/12/04 00:41:23;;;;;;;4.30;1.95;;;;;;;;;;5091904;28;20086;-68
2020/12/04 00:43:50;;;;;;;4.80;1.95;;;;;;;;;;5091930;28;20028;-68
2020/12/04 00:46:16;;;;;;;4.13;2.22;;;;;;;;;;5093234;28;20016;-67
2020/12/04 00:48:44;;;;;;;3.17;1.60;;;;;;;;;;5093280;28;20028;-68
2020/12/04 00:51:10;;;;;;;7.07;2.50;;;;;;;;;;5091853;28;20016;-68
2020/12/04 00:53:36;;;;;;;3.95;2.00;;;;;;;;;;5092860;28;20031;-68
2020/12/04 00:56:02;;;;;;;7.00;2.08;;;;;;;;;;5093039;28;20043;-68
2020/12/04 00:58:28;;;;;;;4.90;2.13;;;;;;;;;;5092945;28;20055;-68
2020/12/04 01:00:55;;;;;;;4.35;2.00;;;;;;;;;;5093050;28;20093;-69
2020/12/04 01:03:21;;;;;;;8.40;2.28;;;;;;;;;;5092722;28;20028;-68
2020/12/04 01:05:47;;;;;;;7.20;1.88;;;;;;;;;;5092773;28;20086;-68
2020/12/04 01:08:13;;;;;;;5.75;2.22;;;;;;;;;;5092823;28;20070;-67
2020/12/04 01:10:39;;;;;;;3.22;1.40;;;;;;;;;;5091338;28;20024;-68
2020/12/04 01:13:05;;;;;;;7.20;2.03;;;;;;;;;;5092808;28;20489;-68
2020/12/04 01:15:31;;;;;;;4.97;1.80;;;;;;;;;;5092510;28;20028;-69
2020/12/04 01:17:58;;;;;;;4.72;1.98;;;;;;;;;;5092649;28;20464;-69
2020/12/04 01:20:24;;;;;;;5.07;2.13;;;;;;;;;;5091256;28;20051;-68
2020/12/04 01:22:50;;;;;;;5.55;1.80;;;;;;;;;;5092531;28;20031;-68
2020/12/04 01:25:16;;;;;;;5.28;1.83;;;;;;;;;;5092547;28;20020;-68
2020/12/04 01:27:42;;;;;;;3.85;1.67;;;;;;;;;;5091236;28;20034;-68
2020/12/04 01:30:08;;;;;;;5.70;2.63;;;;;;;;;;5091225;28;20024;-67
2020/12/04 01:32:34;;;;;;;4.45;1.85;;;;;;;;;;5092455;28;20035;-68
2020/12/04 01:35:01;;;;;;;2.97;1.48;;;;;;;;;;5092440;28;20035;-68
2020/12/04 01:37:27;;;;;;;5.95;2.00;;;;;;;;;;5092285;28;20017;-68
2020/12/04 01:39:54;;;;;;;5.28;2.05;;;;;;;;;;5092446;28;20032;-68
2020/12/04 01:42:20;;;;;;;4.43;2.00;;;;;;;;;;5090970;28;20430;-68
2020/12/04 01:44:47;;;;;;;3.80;1.80;;;;;;;;;;5090937;28;20066;-68
2020/12/04 01:47:13;;;;;;;4.47;1.90;;;;;;;;;;5090954;28;20107;-69
2020/12/04 01:49:39;;;;;;;4.18;1.60;;;;;;;;;;5092205;28;20028;-68
2020/12/04 01:52:05;;;;;;;4.13;1.83;;;;;;;;;;5092321;28;20031;-68
2020/12/04 01:54:33;;;;;;;4.72;1.60;;;;;;;;;;5091879;28;20040;-68
2020/12/04 01:57:01;;;;;;;3.70;1.47;;;;;;;;;;5092195;28;20040;-69
2020/12/04 01:59:27;;;;;;;2.92;1.58;;;;;;;;;;5090996;28;20013;-70
2020/12/04 02:01:54;;;;;;;5.72;1.50;;;;;;;;;;5091922;28;20104;-68
2020/12/04 02:04:21;;;;;;;3.95;1.42;;;;;;;;;;5091992;28;20028;-68
2020/12/04 02:06:53;;;;;;;3.30;1.15;;;;;;;;;;5092094;28;20407;-68
2020/12/04 02:09:49;;;;;;;2.78;1.30;;;;;;;;;;5092285;28;20020;-68
2020/12/04 02:12:16;;;;;;;6.00;1.52;;;;;;;;;;5078916;28;20032;-69
2020/12/04 02:14:43;;;;;;;2.17;0.88;;;;;;;;;;5091751;28;20040;-68
2020/12/04 02:17:09;;;;;;;2.33;0.95;;;;;;;;;;5095373;28;20100;-69
2020/12/04 02:19:42;;;;;;;1.95;0.90;;;;;;;;;;5096008;28;20414;-69
2020/12/04 02:22:11;;;;;;;2.35;1.13;;;;;;;;;;5094735;28;20024;-69
2020/12/04 02:24:38;;;;;;;2.58;1.02;;;;;;;;;;5095883;28;20032;-69
2020/12/04 02:27:04;;;;;;;1.98;0.68;;;;;;;;;;5095783;28;20024;-69
2020/12/04 02:29:30;;;;;;;3.15;1.27;;;;;;;;;;5096130;28;20028;-69
2020/12/04 02:31:56;;;;;;;3.72;0.95;;;;;;;;;;5096167;28;20456;-69
2020/12/04 02:34:22;;;;;;;3.55;1.30;;;;;;;;;;5095666;28;20563;-68
2020/12/04 02:36:48;;;;;;;3.33;1.13;;;;;;;;;;5096324;28;20103;-69
2020/12/04 02:39:15;;;;;;;3.45;1.20;;;;;;;;;;5095813;28;20024;-69
2020/12/04 02:41:44;;;;;;;3.10;1.13;;;;;;;;;;5095897;28;20383;-68
2020/12/04 02:44:11;;;;;;;3.40;1.27;;;;;;;;;;5094372;28;20016;-69
2020/12/04 02:46:37;;;;;;;4.30;0.90;;;;;;;;;;5095610;28;20020;-68
2020/12/04 02:49:03;;;;;;;4.00;0.80;;;;;;;;;;5095530;28;20125;-67
2020/12/04 02:51:29;;;;;;;2.45;0.88;;;;;;;;;;5094133;28;20028;-67
2020/12/04 02:53:55;;;;;;;5.47;1.15;;;;;;;;;;5095325;28;20032;-68
2020/12/04 02:56:21;;;;;;;4.38;1.10;;;;;;;;;;5095529;28;20047;-69
2020/12/04 02:58:47;;;;;;;3.33;1.02;;;;;;;;;;5094965;28;20035;-68
2020/12/04 03:01:13;;;;;;;2.40;0.88;;;;;;;;;;5094068;28;20051;-67
2020/12/04 03:03:40;;;;;;;3.80;0.70;;;;;;;;;;5095589;28;20028;-68
2020/12/04 03:06:06;;;;;;;4.55;1.23;;;;;;;;;;5095390;28;20089;-67
2020/12/04 03:08:32;;;;;;;3.40;1.25;;;;;;;;;;5094410;28;20024;-68
2020/12/04 03:10:58;;;;;;;2.50;0.95;;;;;;;;;;5095241;28;20035;-68
2020/12/04 03:13:24;;;;;;;4.60;0.68;;;;;;;;;;5095618;28;20115;-68
2020/12/04 03:15:50;;;;;;;4.40;1.15;;;;;;;;;;5095322;28;20039;-68
2020/12/04 03:18:16;;;;;;;1.55;0.63;;;;;;;;;;5095002;28;20070;-68
2020/12/04 03:20:43;;;;;;;2.58;0.57;;;;;;;;;;5094990;28;20051;-69
2020/12/04 03:23:09;;;;;;;2.05;0.70;;;;;;;;;;5094706;28;20460;-68
2020/12/04 03:25:35;;;;;;;2.25;0.65;;;;;;;;;;5094931;28;20077;-68
2020/12/04 03:28:01;;;;;;;2.95;0.77;;;;;;;;;;5092857;28;20020;-68
2020/12/04 03:30:27;;;;;;;2.60;0.80;;;;;;;;;;5094414;28;20460;-69
2020/12/04 03:32:53;;;;;;;1.50;0.47;;;;;;;;;;5094583;28;20028;-69
2020/12/04 03:35:20;;;;;;;3.08;0.60;;;;;;;;;;5093308;28;20063;-69
2020/12/04 03:37:46;;;;;;;2.78;0.90;;;;;;;;;;5094502;28;20261;-68
2020/12/04 03:40:12;;;;;;;3.45;0.98;;;;;;;;;;5094559;28;20024;-68
2020/12/04 03:42:38;;;;;;;3.33;0.77;;;;;;;;;;5094433;28;20023;-70
2020/12/04 03:45:04;;;;;;;1.80;0.52;;;;;;;;;;5094714;28;20032;-68
2020/12/04 03:47:30;;;;;;;3.15;0.80;;;;;;;;;;5094942;28;20028;-68
2020/12/04 03:49:57;;;;;;;2.58;0.65;;;;;;;;;;5093020;28;20028;-69
2020/12/04 03:52:23;;;;;;;3.83;0.90;;;;;;;;;;5094514;28;20030;-70
2020/12/04 03:54:49;;;;;;;2.22;0.65;;;;;;;;;;5094156;28;20074;-69
2020/12/04 03:57:15;;;;;;;1.85;0.70;;;;;;;;;;5094262;28;20024;-68
2020/12/04 03:59:41;;;;;;;2.35;0.73;;;;;;;;;;5094206;28;20016;-69
2020/12/04 04:02:07;;;;;;;2.60;0.60;;;;;;;;;;5093900;28;20020;-69
2020/12/04 04:04:34;;;;;;;3.03;1.00;;;;;;;;;;5094092;28;20066;-68
2020/12/04 04:07:00;;;;;;;2.78;0.70;;;;;;;;;;5092663;28;20017;-69
2020/12/04 04:09:26;;;;;;;3.83;0.80;;;;;;;;;;5093964;28;20020;-68
2020/12/04 04:11:52;;;;;;;5.97;1.20;;;;;;;;;;5093750;28;20019;-68
2020/12/04 04:14:18;;;;;;;3.83;1.00;;;;;;;;;;5093761;28;20105;-69
2020/12/04 04:16:44;;;;;;;8.52;1.15;;;;;;;;;;5093847;28;20028;-69
2020/12/04 04:19:10;;;;;;;7.18;1.40;;;;;;;;;;5092458;28;20038;-70
2020/12/04 04:21:39;;;;;;;8.13;1.60;;;;;;;;;;5093694;28;20043;-69
2020/12/04 04:24:05;;;;;;;;;;;;;;;;;;5094137;28;20087;-69
2020/12/04 04:26:31;;;;;;;2.90;0.50;;;;;;;;;;5093499;28;20008;-70
2020/12/04 04:28:57;;;;;;;2.92;0.45;;;;;;;;;;5093659;28;20032;-70
2020/12/04 04:31:24;;;;;;;1.63;0.40;;;;;;;;;;5093546;28;20016;-69
2020/12/04 04:33:50;;;;;;;0.88;0.40;;;;;;;;;;5093468;28;20120;-69
2020/12/04 04:36:16;;;;;;;1.92;0.40;;;;;;;;;;5093501;28;20083;-70
2020/12/04 04:38:42;;;;;;;2.13;0.30;;;;;;;;;;5092468;28;20077;-69
2020/12/04 04:41:09;;;;;;;1.27;0.30;;;;;;;;;;5093450;28;20040;-69
2020/12/04 04:43:35;;;;;;;1.70;0.47;;;;;;;;;;5093361;28;20020;-69
2020/12/04 04:46:30;;;;;;;0.82;0.20;;;;;;;;;;5093231;28;20036;-69
2020/12/04 04:48:59;;;;;;;0.77;0.30;;;;;;;;;;5079921;28;20043;-68
2020/12/04 04:51:25;;;;;;;2.20;0.20;;;;;;;;;;5093117;28;20099;-69
2020/12/04 04:53:52;;;;;;;2.05;0.47;;;;;;;;;;5092881;28;20480;-69
2020/12/04 04:56:19;;;;;;;2.20;0.22;;;;;;;;;;5091909;28;20032;-69
2020/12/04 04:58:45;;;;;;;1.42;0.43;;;;;;;;;;5093040;28;20085;-70
2020/12/04 05:01:11;;;;;;;1.95;0.50;;;;;;;;;;5092962;28;20071;-68
2020/12/04 05:03:37;;;;;;;1.27;0.40;;;;;;;;;;5093022;28;20032;-69
2020/12/04 05:06:03;;;;;;;1.23;0.40;;;;;;;;;;5092917;28;20099;-69
2020/12/04 05:08:29;;;;;;;1.80;0.40;;;;;;;;;;5091726;28;20028;-68
2020/12/04 05:11:07;;;;;;;2.35;0.82;;;;;;;;;;5093294;28;20024;-70
2020/12/04 05:13:33;;;;;;;1.27;0.65;;;;;;;;;;5091605;28;20063;-70
2020/12/04 05:15:59;;;;;;;1.35;0.45;;;;;;;;;;5092729;28;20092;-69
2020/12/04 05:18:25;;;;;;;6.35;3.08;;;;;;;;;;5092506;28;20020;-69
2020/12/04 05:20:53;;;;;;;6.00;2.47;;;;;;;;;;5091444;28;20031;-69
2020/12/04 05:23:19;;;;;;;3.70;1.45;;;;;;;;;;5092821;28;20460;-69
2020/12/04 05:25:47;;;;;;;2.58;1.10;;;;;;;;;;5092341;28;20027;-69
2020/12/04 05:28:21;;;;;;;2.83;0.90;;;;;;;;;;5091248;28;20063;-69
2020/12/04 05:30:49;;;;;;;3.05;0.90;;;;;;;;;;5091116;28;20111;-69
2020/12/04 05:33:16;;;;;;;4.18;0.85;;;;;;;;;;5091091;28;20026;-70
2020/12/04 05:35:42;;;;;;;3.28;1.63;;;;;;;;;;5091128;28;20535;-69
2020/12/04 05:38:08;;;;;;;2.50;1.08;;;;;;;;;;5092311;28;20074;-70
2020/12/04 05:40:37;;;;;;;3.20;0.90;;;;;;;;;;5092391;28;20024;-73
2020/12/04 05:43:04;;;;;;;4.95;1.25;;;;;;;;;;5092468;28;20032;-73
2020/12/04 05:45:31;;;;;;;3.88;0.60;;;;;;;;;;5089820;28;20024;-68
2020/12/04 05:47:57;;;;;;;2.00;0.90;;;;;;;;;;5090087;28;20040;-69
2020/12/04 05:50:24;;;;;;;2.92;0.82;;;;;;;;;;5090180;28;20518;-68
2020/12/04 05:52:50;;;;;;;3.58;0.85;;;;;;;;;;5090106;28;20024;-69
2020/12/04 05:55:17;;;;;;;2.92;0.90;;;;;;;;;;5090182;28;20358;-73
2020/12/04 05:57:43;;;;;;;1.85;0.80;;;;;;;;;;5092328;28;20032;-68
2020/12/04 06:00:09;;;;;;;2.47;0.80;;;;;;;;;;5090498;28;20059;-68
2020/12/04 06:02:35;;;;;;;3.55;1.92;;;;;;;;;;5088673;28;20090;-68
2020/12/04 06:05:02;;;;;;;4.80;1.40;;;;;;;;;;5089992;28;20020;-68
2020/12/04 06:07:28;;;;;;;5.82;3.35;;;;;;;;;;5089897;28;20028;-68
2020/12/04 06:09:59;;;;;;;6.68;2.40;;;;;;;;;;5090003;28;20027;-68
2020/12/04 06:12:25;;;;;;;5.55;2.95;;;;;;;;;;5090023;28;20028;-69
2020/12/04 06:14:51;;;;;;;5.50;2.72;;;;;;;;;;5090728;28;20073;-69
2020/12/04 06:17:18;;;;;;;6.03;2.63;;;;;;;;;;5090550;28;20043;-68
2020/12/04 06:19:45;;;;;;;4.25;1.73;;;;;;;;;;5091967;28;20024;-68
2020/12/04 06:22:14;;;;;;;4.85;2.08;;;;;;;;;;5091545;28;20031;-68
2020/12/04 06:24:55;;;;;;;4.05;1.73;;;;;;;;;;5091814;28;20073;-68
2020/12/04 06:27:40;;;;;;;2.80;1.20;;;;;;;;;;5091981;28;20028;-69
2020/12/04 06:30:07;;;;;;;5.72;3.03;;;;;;;;;;5092045;28;20035;-68
2020/12/04 06:32:34;;;;;;;5.95;2.95;;;;;;;;;;5090661;28;20021;-69
2020/12/04 06:35:01;;;;;;;5.60;2.60;;;;;;;;;;5090360;28;20429;-68
2020/12/04 06:37:42;;;;;;;4.97;2.17;;;;;;;;;;5090942;28;20031;-69
2020/12/04 06:40:27;;;;;;;3.13;1.15;;;;;;;;;;5090322;28;20545;-69
2020/12/04 06:42:55;;;;;;;3.83;0.80;;;;;;;;;;5091042;28;20483;-69
2020/12/04 06:45:21;;;;;;;2.15;0.90;;;;;;;;;;5106901;28;20019;-70
2020/12/04 06:48:06;;;;;;;2.72;1.10;;;;;;;;;;5106434;28;20043;-68
2020/12/04 06:50:39;;;;;;;4.07;1.42;;;;;;;;;;5094061;28;20020;-69
2020/12/04 06:53:06;;;;;;;2.45;1.38;;;;;;;;;;5091353;28;20047;-67
2020/12/04 06:55:33;;;;;;;3.20;1.40;;;;;;;;;;5091259;28;20119;-67
2020/12/04 06:58:00;;;;;;;5.30;1.38;;;;;;;;;;5091155;28;20819;-68
2020/12/04 07:00:26;;;;;;;3.85;1.00;;;;;;;;;;5091475;28;20024;-68
2020/12/04 07:02:52;;;;;;;3.30;0.90;;;;;;;;;;5093790;28;20027;-65
2020/12/04 07:05:28;;;;;;;2.92;1.30;;;;;;;;;;5095306;28;20114;-66
2020/12/04 07:08:04;;;;;;;4.60;1.30;;;;;;;;;;5094735;28;20016;-66
2020/12/04 07:10:31;;;;;;;1.95;0.70;;;;;;;;;;5093638;28;20040;-67
2020/12/04 07:13:01;;;;;;;2.30;0.55;;;;;;;;;;5094744;28;20156;-67
2020/12/04 07:15:27;;;;;;;2.75;1.27;;;;;;;;;;5095187;28;20085;-68
2020/12/04 07:17:53;;;;;;;2.13;0.88;;;;;;;;;;5094522;28;20065;-68
2020/12/04 07:20:20;;;;;;;1.35;0.68;;;;;;;;;;5094205;28;20460;-70
2020/12/04 07:22:47;;;;;;;2.08;1.05;;;;;;;;;;5093116;28;20495;-67
2020/12/04 07:25:13;;;;;;;1.55;0.68;;;;;;;;;;5092782;28;20020;-69
2020/12/04 07:27:39;;;;;;;1.48;0.63;;;;;;;;;;5092332;28;20024;-69
2020/12/04 07:30:15;;;;;;;2.17;0.90;;;;;;;;;;5092263;28;20008;-70
2020/12/04 07:32:48;;;;;;;3.13;0.70;;;;;;;;;;5092284;28;20039;-68
2020/12/04 07:35:14;;;;;;;2.47;0.63;;;;;;;;;;5090898;28;20554;-70
2020/12/04 07:37:41;;;;;;;1.45;0.60;;;;;;;;;;5092179;28;20099;-68
2020/12/04 07:40:07;;;;;;;1.60;0.45;;;;;;;;;;5092404;28;20056;-67
2020/12/04 07:42:33;;;;;;;2.05;0.63;;;;;;;;;;5090714;28;20020;-67
2020/12/04 07:44:59;;;;;;;3.88;1.00;;;;;;;;;;5092948;28;20024;-68
2020/12/04 07:47:25;;;;;;;2.90;0.75;;;;;;;;;;5094140;28;20030;-69
2020/12/04 07:49:54;;;;;;;4.13;0.70;;;;;;;;;;5092438;28;20055;-68
2020/12/04 07:52:20;;;;;;;;;;;;;;;;;;5094368;28;20027;-69
2020/12/04 07:54:48;;;;;;;1.23;0.45;;;;;;;;;;5093495;28;19969;-70
2020/12/04 07:57:14;;;;;;;2.23;0.70;;;;;;;;;;5093747;28;20031;-69
2020/12/04 07:59:41;;;;;;;3.10;0.80;;;;;;;;;;5092845;28;20062;-70
2020/12/04 08:02:08;;;;;;;1.40;0.60;;;;;;;;;;5093756;28;20016;-70
2020/12/04 08:04:35;;;;;;;2.72;0.80;;;;;;;;;;5093609;28;20024;-69
2020/12/04 08:07:08;;;;;;;2.75;1.08;;;;;;;;;;5093425;28;20146;-69
2020/12/04 08:09:41;;;;;;;2.13;0.63;;;;;;;;;;5091985;28;20027;-68
2020/12/04 08:12:21;;;;;;;3.53;0.90;;;;;;;;;;5091953;28;20032;-69
2020/12/04 08:14:49;;;;;;;3.83;0.80;;;;;;;;;;5093212;28;20028;-70
2020/12/04 08:17:17;;;;;;;3.28;1.13;;;;;;;;;;5093459;28;20067;-69
2020/12/04 08:19:43;;;;;;;2.20;0.80;;;;;;;;;;5093564;28;20107;-70
2020/12/04 08:22:10;;;;;;;3.83;1.02;;;;;;;;;;5094489;28;20451;-69
2020/12/04 08:24:38;;;;;;;3.72;1.00;;;;;;;;;;5093289;28;20020;-70
2020/12/04 08:27:12;;;;;;;5.07;1.00;;;;;;;;;;5093213;28;20042;-73
2020/12/04 08:29:40;;;;;;;3.25;0.88;;;;;;;;;;5093306;28;20016;-70
2020/12/04 08:32:21;;;;;;;2.47;0.87;;;;;;;;;;5092965;28;20032;-70
2020/12/04 08:34:49;;;;;;;2.72;1.30;;;;;;;;;;5093092;28;20173;-73
2020/12/04 08:37:16;;;;;;;4.05;1.10;;;;;;;;;;5093021;28;20024;-71
2020/12/04 08:39:44;;;;;;;7.65;4.05;;;;;;;;;;5092635;28;20332;-71
2020/12/04 08:42:15;;;;;;;7.57;4.00;;;;;;;;;;5093843;28;20089;-69
2020/12/04 08:44:42;;;;;;;11.15;5.88;;;;;;;;;;5094133;28;20039;-69
2020/12/04 08:47:08;;;;;;;9.77;4.85;;;;;;;;;;5091905;28;20468;-72
2020/12/04 08:49:34;;;;;;;7.13;3.30;;;;;;;;;;5093391;28;20031;-71
2020/12/04 08:52:03;;;;;;;6.57;2.70;;;;;;;;;;5093015;28;20023;-69
2020/12/04 08:54:29;;;;;;;5.05;1.83;;;;;;;;;;5092974;28;20035;-67
2020/12/04 08:56:56;;;;;;;2.22;0.93;;;;;;;;;;5091761;28;20023;-69
2020/12/04 08:59:23;;;;;;;3.25;1.00;;;;;;;;;;5093045;28;20012;-67
2020/12/04 09:01:51;;;;;;;2.97;1.10;;;;;;;;;;5091534;28;20547;-67
2020/12/04 09:04:17;;;;;;;2.72;1.10;;;;;;;;;;5095160;28;20604;-68
2020/12/04 09:06:43;;;;;;;3.47;1.20;;;;;;;;;;5093523;28;20020;-68
2020/12/04 09:09:09;;;;;;;3.65;1.08;;;;;;;;;;5091500;28;20483;-68
2020/12/04 09:11:35;;;;;;;4.95;2.20;;;;;;;;;;5096233;28;20012;-68
2020/12/04 09:14:01;;;;;;;5.32;2.53;;;;;;;;;;5091445;28;20024;-67
2020/12/04 09:16:28;;;;;;;5.18;2.00;;;;;;;;;;5092761;28;20032;-67
2020/12/04 09:18:54;;;;;;;2.95;1.45;;;;;;;;;;5092801;28;20031;-66
2020/12/04 09:21:20;;;;;;;3.72;1.50;;;;;;;;;;5092544;28;20110;-67
2020/12/04 09:23:46;;;;;;;2.83;1.10;;;;;;;;;;5091270;28;20027;-67
2020/12/04 09:26:12;;;;;;;2.47;1.00;;;;;;;;;;5092338;28;20028;-67
2020/12/04 09:28:38;;;;;;;2.05;0.95;;;;;;;;;;5092492;28;20380;-69
2020/12/04 09:31:04;;;;;;;5.00;3.08;;;;;;;;;;5092917;28;20024;-68
2020/12/04 09:33:31;;;;;;;5.25;2.42;;;;;;;;;;5092428;28;20024;-70
2020/12/04 09:35:57;;;;;;;4.30;1.50;;;;;;;;;;5092431;28;20149;-66
2020/12/04 09:38:23;;;;;;;2.95;0.80;;;;;;;;;;5092278;28;20024;-66
2020/12/04 09:40:49;;;;;;;4.10;1.27;;;;;;;;;;5092451;28;20509;-72
2020/12/04 09:43:15;;;;;;;11.10;6.57;;;;;;;;;;5092581;28;20032;-67
2020/12/04 09:45:41;;;;;;;17.77;9.80;;;;;;;;;;5092316;28;20020;-69
2020/12/04 09:48:08;;;;;;;9.82;4.85;;;;;;;;;;5092355;28;20052;-69
2020/12/04 09:50:34;;;;;;;6.75;3.00;;;;;;;;;;5092153;28;20376;-69
2020/12/04 09:53:00;;;;;;;4.25;1.88;;;;;;;;;;5092439;28;20107;-72
2020/12/04 09:55:26;;;;;;;3.53;1.55;;;;;;;;;;5092207;28;20040;-71
2020/12/04 09:57:52;;;;;;;2.42;1.13;;;;;;;;;;5090875;28;20031;-70
2020/12/04 10:00:18;;;;;;;3.15;1.42;;;;;;;;;;5092277;28;20020;-70
2020/12/04 10:02:45;;;;;;;3.42;1.55;;;;;;;;;;5090824;28;20024;-69
2020/12/04 10:05:11;;;;;;;3.35;1.17;;;;;;;;;;5092196;28;20021;-70
2020/12/04 10:07:37;;;;;;;2.33;1.02;;;;;;;;;;5092251;28;20073;-68
2020/12/04 10:10:04;;;;;;;5.93;2.63;;;;;;;;;;5091981;28;20472;-69
2020/12/04 10:12:30;;;;;;;7.05;3.60;;;;;;;;;;5092054;28;20027;-70
2020/12/04 10:14:56;;;;;;;5.60;2.80;;;;;;;;;;5090717;28;20032;-69
2020/12/04 10:17:22;;;;;;;6.72;3.13;;;;;;;;;;5091868;28;20032;-69
2020/12/04 10:19:48;;;;;;;5.82;2.58;;;;;;;;;;5092434;28;20028;-70
2020/12/04 10:22:15;;;;;;;6.25;3.00;;;;;;;;;;5091785;28;20024;-71
2020/12/04 10:24:41;;;;;;;6.25;2.67;;;;;;;;;;5092042;28;20028;-68
2020/12/04 10:27:07;;;;;;;6.32;3.60;;;;;;;;;;5091906;28;20043;-70
2020/12/04 10:29:33;;;;;;;5.78;2.97;;;;;;;;;;5091954;28;20085;-71
2020/12/04 10:31:59;;;;;;;4.72;2.10;;;;;;;;;;5091844;28;20513;-72
2020/12/04 10:34:26;;;;;;;3.88;1.75;;;;;;;;;;5091641;28;20047;-69
2020/12/04 10:36:52;;;;;;;4.45;1.90;;;;;;;;;;5091759;28;20024;-70
2020/12/04 10:39:18;;;;;;;4.95;2.53;;;;;;;;;;5094193;28;20024;-71
2020/12/04 10:41:44;;;;;;;7.20;2.08;;;;;;;;;;5095705;28;20039;-69
2020/12/04 10:44:11;;;;;;;4.22;1.70;;;;;;;;;;5095673;28;20024;-71
2020/12/04 10:46:38;;;;;;;2.50;1.38;;;;;;;;;;5094644;28;20435;-72
2020/12/04 10:49:05;;;;;;;3.20;1.00;;;;;;;;;;5095771;28;20052;-72
2020/12/04 10:51:31;;;;;;;2.42;1.20;;;;;;;;;;5095688;28;20031;-71
2020/12/04 10:53:57;;;;;;;4.70;1.45;;;;;;;;;;5095383;28;20024;-72
2020/12/04 10:56:24;;;;;;;2.80;1.35;;;;;;;;;;5095611;28;20036;-70
2020/12/04 10:58:51;;;;;;;3.50;1.77;;;;;;;;;;5093964;28;20464;-72
2020/12/04 11:01:26;;;;;;;4.05;2.05;;;;;;;;;;5095088;28;20024;-71
2020/12/04 11:06:19;;;;;;;5.18;2.40;;;;;;;;;;5095345;28;20428;-71
2020/12/04 11:08:46;;;;;;;6.75;2.20;;;;;;;;;;5095234;28;20047;-70
2020/12/04 11:11:13;;;;;;;4.63;1.60;;;;;;;;;;5093889;28;20057;-70
2020/12/04 11:13:39;;;;;;;3.95;1.25;;;;;;;;;;5095106;28;20368;-69
2020/12/04 11:16:05;;;;;;;4.10;1.42;;;;;;;;;;5093640;28;20039;-68
2020/12/04 11:18:31;;;;;;;2.30;0.90;;;;;;;;;;5093681;28;20468;-69
2020/12/04 11:20:57;;;;;;;5.07;1.55;;;;;;;;;;5094997;28;20052;-73
2020/12/04 11:23:24;;;;;;;4.00;1.40;;;;;;;;;;5094917;28;20028;-70
2020/12/04 11:25:50;;;;;;;4.28;1.63;;;;;;;;;;5095070;28;20027;-71
2020/12/04 11:28:16;;;;;;;4.32;1.20;;;;;;;;;;5095014;28;20039;-70
2020/12/04 11:30:43;;;;;;;4.68;1.15;;;;;;;;;;5093700;28;20028;-71
2020/12/04 11:33:09;;;;;;;2.50;1.17;;;;;;;;;;5094847;28;20035;-69
2020/12/04 11:35:36;;;;;;;3.40;0.85;;;;;;;;;;5094631;28;20028;-69
2020/12/04 11:38:03;;;;;;;4.75;1.75;;;;;;;;;;5093424;28;20059;-69
2020/12/04 11:40:30;;;;;;;6.00;1.30;;;;;;;;;;5094572;28;20095;-70
2020/12/04 11:42:56;;;;;;;3.35;1.02;;;;;;;;;;5094748;28;20024;-71
2020/12/04 11:45:22;;;;;;;2.53;1.20;;;;;;;;;;5094411;28;20032;-69
2020/12/04 11:47:49;;;;;;;2.75;0.80;;;;;;;;;;5094374;28;20020;-69
2020/12/04 11:50:16;;;;;;;3.15;0.73;;;;;;;;;;5093227;28;20085;-68
2020/12/04 11:52:43;;;;;;;3.72;1.27;;;;;;;;;;5094346;28;20020;-67
2020/12/04 11:55:10;;;;;;;10.70;5.18;;;;;;;;;;5092378;28;20502;-68
2020/12/04 11:57:36;;;;;;;9.40;4.47;;;;;;;;;;5094610;28;20077;-68
2020/12/04 12:00:04;;;;;;;10.38;6.13;;;;;;;;;;5092587;28;20379;-69
2020/12/04 12:02:30;;;;;;;23.98;14.85;;;;;;;;;;5092869;28;20120;-69
2020/12/04 12:04:56;;;;;;;20.52;12.20;;;;;;;;;;5094123;28;20475;-66
2020/12/04 12:07:22;;;;;;;22.80;13.73;;;;;;;;;;5094060;28;20028;-69
2020/12/04 12:09:49;;;;;;;20.70;12.75;;;;;;;;;;5094168;28;20113;-66
2020/12/04 12:12:19;;;;;;;13.02;7.57;;;;;;;;;;5092706;28;20086;-67
2020/12/04 12:14:45;;;;;;;7.47;4.38;;;;;;;;;;5093968;28;20492;-66
2020/12/04 12:17:12;;;;;;;5.78;2.88;;;;;;;;;;5093987;28;20028;-66
2020/12/04 12:19:40;;;;;;;8.55;4.97;;;;;;;;;;5093874;28;20028;-67
2020/12/04 12:22:07;;;;;;;5.63;2.45;;;;;;;;;;5094116;28;20024;-66
2020/12/04 12:24:34;;;;;;;7.50;1.65;;;;;;;;;;5093666;28;20074;-68
2020/12/04 12:27:00;;;;;;;4.05;1.08;;;;;;;;;;5093639;28;20387;-66
2020/12/04 12:29:26;;;;;;;2.15;1.08;;;;;;;;;;5092468;28;20054;-68
2020/12/04 12:31:52;;;;;;;3.22;1.00;;;;;;;;;;5093567;28;20036;-69
2020/12/04 12:34:18;;;;;;;2.63;0.68;;;;;;;;;;5093496;28;20023;-68
2020/12/04 12:36:44;;;;;;;1.35;0.57;;;;;;;;;;5092177;28;20078;-69
2020/12/04 12:39:10;;;;;;;2.42;0.60;;;;;;;;;;5093571;28;20047;-69
2020/12/04 12:41:37;;;;;;;2.45;0.95;;;;;;;;;;5093277;28;20028;-69
2020/12/04 12:44:03;;;;;;;3.03;1.38;;;;;;;;;;5092087;28;20017;-69
2020/12/04 12:46:29;;;;;;;4.25;1.00;;;;;;;;;;5111010;28;20051;-69
2020/12/04 12:48:55;;;;;;;3.25;1.52;;;;;;;;;;5113653;28;20047;-69
2020/12/04 12:51:21;;;;;;;5.07;2.63;;;;;;;;;;5113467;28;20031;-68
2020/12/04 12:53:47;;;;;;;4.63;2.13;;;;;;;;;;5112331;28;20016;-70
2020/12/04 12:56:13;;;;;;;5.40;1.75;;;;;;;;;;5111904;28;20123;-69
2020/12/04 12:58:39;;;;;;;5.47;1.92;;;;;;;;;;5113142;28;20030;-69
2020/12/04 13:01:06;;;;;;;5.20;1.30;;;;;;;;;;5112892;28;20054;-66
2020/12/04 13:03:32;;;;;;;4.93;1.50;;;;;;;;;;5113259;28;20043;-66
2020/12/04 13:05:58;;;;;;;4.35;1.60;;;;;;;;;;5112044;28;20046;-67
2020/12/04 13:08:24;;;;;;;2.80;1.40;;;;;;;;;;5113022;28;20037;-69
2020/12/04 13:10:51;;;;;;;9.80;3.42;;;;;;;;;;5113143;28;20062;-70
2020/12/04 13:13:17;;;;;;;7.18;3.00;;;;;;;;;;5109434;28;20523;-69
2020/12/04 13:15:43;;;;;;;4.18;2.00;;;;;;;;;;5102709;28;20036;-69
2020/12/04 13:18:09;;;;;;;4.53;1.90;;;;;;;;;;5103335;28;20172;-68
2020/12/04 13:20:36;;;;;;;6.85;2.50;;;;;;;;;;5113123;28;20019;-71
2020/12/04 13:23:12;;;;;;;5.68;2.55;;;;;;;;;;5107813;28;20063;-70
2020/12/04 13:25:38;;;;;;;6.22;2.58;;;;;;;;;;5100787;28;20054;-69
2020/12/04 13:28:05;;;;;;;4.80;2.17;;;;;;;;;;5100946;28;20028;-69
2020/12/04 13:30:31;;;;;;;5.60;3.30;;;;;;;;;;5097323;28;20039;-67
2020/12/04 13:33:00;;;;;;;8.10;3.47;;;;;;;;;;5091998;28;20432;-68
2020/12/04 13:35:26;;;;;;;;;;;;;;;;;;5102358;28;20096;-65
2020/12/04 13:37:52;;;;;;;4.18;2.10;;;;;;;;;;5100028;28;20010;-65
2020/12/04 13:40:18;;;;;;;5.25;2.08;;;;;;;;;;5097756;28;20020;-68
2020/12/04 13:42:44;;;;;;;3.38;1.70;;;;;;;;;;5101013;28;20392;-68
2020/12/04 13:45:10;;;;;;;5.20;2.10;;;;;;;;;;5100494;28;20024;-66
2020/12/04 13:47:36;;;;;;;4.70;2.05;;;;;;;;;;5098500;28;20483;-69
2020/12/04 13:50:03;;;;;;;5.40;2.53;;;;;;;;;;5100816;28;20065;-66
2020/12/04 13:52:30;;;;;;;8.80;4.38;;;;;;;;;;5101776;28;20031;-68
2020/12/04 13:54:56;;;;;;;11.63;4.65;;;;;;;;;;5099816;28;20127;-66
2020/12/04 13:57:22;;;;;;;35.08;9.60;;;;;;;;;;5103004;28;20043;-67
2020/12/04 13:59:48;;;;;;;34.47;13.75;;;;;;;;;;5111369;28;20125;-66
2020/12/04 14:02:14;;;;;;;51.10;15.60;;;;;;;;;;5112778;28;20030;-68
2020/12/04 14:04:40;;;;;;;34.60;13.05;;;;;;;;;;5111693;28;20065;-67
2020/12/04 14:07:07;;;;;;;27.25;10.23;;;;;;;;;;5110865;28;20028;-68
2020/12/04 14:09:34;;;;;;;13.93;6.47;;;;;;;;;;5110001;28;20016;-71
2020/12/04 14:12:00;;;;;;;15.50;6.00;;;;;;;;;;5113772;28;20115;-67
2020/12/04 14:14:27;;;;;;;10.45;5.47;;;;;;;;;;5116233;28;20030;-71
2020/12/04 14:16:53;;;;;;;14.13;5.28;;;;;;;;;;5115072;28;20394;-68
2020/12/04 14:19:19;;;;;;;9.73;4.93;;;;;;;;;;5114756;28;20084;-70
2020/12/04 14:21:46;;;;;;;7.18;3.83;;;;;;;;;;5116438;28;20028;-68
2020/12/04 14:24:12;;;;;;;7.25;4.30;;;;;;;;;;5116384;28;20015;-72
2020/12/04 14:26:38;;;;;;;10.27;3.83;;;;;;;;;;5115300;28;20042;-70
2020/12/04 14:29:04;;;;;;;7.20;3.22;;;;;;;;;;5116524;28;20020;-73
2020/12/04 14:31:30;;;;;;;5.78;2.88;;;;;;;;;;5116511;28;20046;-73
2020/12/04 14:33:56;;;;;;;6.35;2.95;;;;;;;;;;5115317;28;20026;-72
2020/12/04 14:36:23;;;;;;;4.80;2.65;;;;;;;;;;5116101;28;20119;-72
2020/12/04 14:39:06;;;;;;;9.45;3.10;;;;;;;;;;5116303;28;20062;-71
2020/12/04 14:41:33;;;;;;;12.73;5.65;;;;;;;;;;5115646;28;20024;-72
2020/12/04 14:43:59;;;;;;;14.35;6.68;;;;;;;;;;5115514;28;20046;-72
2020/12/04 14:46:26;;;;;;;13.65;5.55;;;;;;;;;;5117103;28;20024;-71